Enter the Airport ICAO Code

Search by Airport or City

Current Weather

GCXO | Tenerife-North Airport (Los Rodeos Airport)

Tenerife, Canary Islands, Spain

Last Update 22 Minutes Ago

Clear Sky

Temperature of 21 ºC

Light to Moderate Winds from West

Temperature

21 ºC

Dew Point Temperature

10 ºC

Relative Humidity

49.58 %

Wind Direction

West (270º, Without Significant Variations)

Wind Velocity

11 km/h (06 kt)

Gusts

None

Visibility

No Significant Reductions

Sea Level Pressure

1024 hPa (Hectopascals)

Layers of Clouds

None

METAR GCXO 202130Z 27006KT CAVOK 21/10 Q1024 NOSIG

Weather Forecast

GCXO | Tenerife-North Airport (Los Rodeos Airport)

Tenerife, Canary Islands, Spain

Forecast valid for the next 23 Hours

From now on it is expected:

Sky with Few Clouds

Light to Moderate Winds from West

Maximum Temperature

26 ºC in 13 Hours

Minimum Temperature

18 ºC in 8 Hours

TAF GCXO 202000Z 2021/2121 27005KT 9999 FEW005 TX26/2111Z TN18/2106Z